Time;durP1;ratioP1;P1;durP2;ratioP2;P2;SDS_P1;SDS_P2;PMS_P1;PMS_P2;Temp;Humidity;BMP_temperature;BMP_pressure;BME280_temperature;BME280_humidity;BME280_pressure;Samples;Min_cycle;Max_cycle;Signal;HPM_P1;HPM_P2
2023/01/30 00:01:31;;;;;;;26.02;14.80;;;6.90;99.90;;;;;;5054321;28;20045;-72
2023/01/30 00:03:56;;;;;;;30.70;14.93;;;7.00;99.90;;;;;;5052739;28;20116;-72
2023/01/30 00:06:22;;;;;;;26.33;15.45;;;6.80;99.90;;;;;;5054227;28;20116;-72
2023/01/30 00:08:48;;;;;;;27.60;14.57;;;6.90;99.90;;;;;;5052347;28;20072;-72
2023/01/30 00:11:15;;;;;;;25.17;15.50;;;7.00;99.90;;;;;;5052700;28;20041;-71
2023/01/30 00:13:42;;;;;;;24.02;14.30;;;7.00;99.90;;;;;;5052401;28;20087;-72
2023/01/30 00:16:08;;;;;;;23.58;13.60;;;7.10;99.90;;;;;;5052604;28;20564;-72
2023/01/30 00:18:34;;;;;;;25.25;13.93;;;7.10;99.90;;;;;;5052106;28;20086;-72
2023/01/30 00:21:03;;;;;;;25.48;13.35;;;7.00;99.90;;;;;;5053705;28;20037;-72
2023/01/30 00:23:31;;;;;;;28.65;13.40;;;7.00;99.90;;;;;;5052439;28;20093;-71
2023/01/30 00:25:57;;;;;;;23.60;12.82;;;7.00;99.90;;;;;;5052454;28;20052;-72
2023/01/30 00:28:24;;;;;;;22.10;12.40;;;7.00;99.90;;;;;;5052328;28;20041;-72
2023/01/30 00:30:51;;;;;;;30.52;13.93;;;7.10;99.90;;;;;;5052460;28;20052;-72
2023/01/30 00:33:18;;;;;;;24.10;13.07;;;7.00;99.90;;;;;;5052418;28;20041;-72
2023/01/30 00:35:45;;;;;;;21.55;12.32;;;7.00;99.90;;;;;;5053664;28;20037;-72
2023/01/30 00:38:11;;;;;;;20.27;12.25;;;7.10;99.90;;;;;;5052146;28;20040;-72
2023/01/30 00:40:37;;;;;;;18.92;11.50;;;7.20;99.90;;;;;;5051982;28;20124;-72
2023/01/30 00:48:53;;;;;;;24.55;11.63;;;7.10;99.90;;;;;;4994619;28;20056;-72
2023/01/30 00:51:18;;;;;;;20.85;12.05;;;7.20;99.90;;;;;;5011143;28;20045;-72
2023/01/30 00:53:44;;;;;;;20.30;11.90;;;7.10;99.90;;;;;;5030404;28;20059;-72
2023/01/30 00:56:09;;;;;;;23.85;12.50;;;7.10;99.90;;;;;;5053099;28;20414;-72
2023/01/30 00:58:35;;;;;;;20.95;11.93;;;7.10;99.90;;;;;;5051657;28;20375;-72
2023/01/30 01:01:00;;;;;;;29.02;13.57;;;7.10;99.90;;;;;;5052971;28;20041;-72
2023/01/30 01:03:26;;;;;;;21.85;12.82;;;7.00;99.90;;;;;;5052890;28;20055;-72
2023/01/30 01:05:52;;;;;;;24.00;12.05;;;7.10;99.90;;;;;;5051531;28;20037;-72
2023/01/30 01:08:17;;;;;;;22.95;11.95;;;7.00;99.90;;;;;;5050841;28;20041;-72
2023/01/30 01:10:43;;;;;;;23.08;12.65;;;6.90;99.90;;;;;;5051585;28;20040;-72
2023/01/30 01:13:09;;;;;;;29.23;13.23;;;7.00;99.90;;;;;;5051528;28;20041;-72
2023/01/30 01:15:35;;;;;;;27.60;13.52;;;7.00;99.90;;;;;;5051690;28;20102;-72
2023/01/30 01:18:01;;;;;;;24.73;12.15;;;6.90;99.90;;;;;;5051057;28;20068;-72
2023/01/30 01:20:27;;;;;;;27.73;13.73;;;6.80;99.90;;;;;;5051254;28;20045;-72
2023/01/30 01:22:54;;;;;;;24.67;12.27;;;6.80;99.90;;;;;;5034699;28;20552;-72
2023/01/30 01:25:20;;;;;;;23.23;12.38;;;6.90;99.90;;;;;;5051399;28;20040;-72
2023/01/30 01:27:46;;;;;;;22.42;12.60;;;6.90;99.90;;;;;;5050673;28;20033;-72
2023/01/30 01:30:12;;;;;;;24.42;11.20;;;6.90;99.90;;;;;;5052380;28;20517;-72
2023/01/30 01:32:38;;;;;;;18.17;9.52;;;6.80;99.90;;;;;;5052257;28;20062;-72
2023/01/30 01:35:04;;;;;;;17.48;10.52;;;6.90;99.90;;;;;;5052084;28;20512;-72
2023/01/30 01:37:30;;;;;;;20.80;9.88;;;6.80;99.90;;;;;;5050503;28;20596;-72
2023/01/30 01:42:59;;;;;;;16.88;8.18;;;6.90;99.90;;;;;;4993558;28;20053;-72
2023/01/30 01:45:25;;;;;;;13.88;8.25;;;6.90;99.90;;;;;;4993561;28;20045;-72
2023/01/30 01:47:59;;;;;;;16.83;8.50;;;6.90;99.90;;;;;;5028793;28;20152;-72
2023/01/30 01:50:31;;;;;;;14.07;7.38;;;6.80;99.90;;;;;;5050575;28;20133;-72
2023/01/30 01:53:00;;;;;;;11.60;6.23;;;6.90;99.90;;;;;;5050950;28;20114;-72
2023/01/30 01:55:26;;;;;;;12.32;6.57;;;6.90;99.90;;;;;;5050550;28;20371;-72
2023/01/30 01:58:06;;;;;;;12.43;6.15;;;6.80;99.90;;;;;;5033864;28;20076;-72
2023/01/30 02:00:32;;;;;;;14.40;6.00;;;7.00;99.90;;;;;;5051937;28;20049;-72
2023/01/30 02:03:00;;;;;;;12.25;6.43;;;7.00;99.90;;;;;;5050826;28;20576;-72
2023/01/30 02:05:36;;;;;;;9.68;6.18;;;7.00;99.90;;;;;;5050388;28;20036;-72
2023/01/30 02:08:14;;;;;;;10.25;5.82;;;7.00;99.90;;;;;;5050006;28;20486;-72
2023/01/30 02:10:42;;;;;;;12.20;5.90;;;7.00;99.90;;;;;;5050424;28;20049;-72
2023/01/30 02:13:08;;;;;;;11.82;5.60;;;7.00;99.90;;;;;;5033673;28;20061;-72
2023/01/30 02:15:34;;;;;;;13.25;6.38;;;7.00;99.90;;;;;;5033846;28;20040;-72
2023/01/30 02:18:00;;;;;;;15.05;6.90;;;7.00;99.90;;;;;;5050674;28;20520;-72
2023/01/30 02:20:37;;;;;;;11.52;6.38;;;7.10;99.90;;;;;;5033353;28;20045;-72
2023/01/30 02:23:34;;;;;;;20.45;8.10;;;7.10;99.90;;;;;;5051638;28;20044;-72
2023/01/30 02:26:30;;;;;;;19.60;8.82;;;7.10;99.90;;;;;;5050545;28;20041;-72
2023/01/30 02:29:24;;;;;;;20.65;8.40;;;7.10;99.90;;;;;;5050136;28;20093;-72
2023/01/30 02:32:10;;;;;;;21.48;8.57;;;7.10;99.90;;;;;;5050496;28;20044;-72
2023/01/30 02:35:04;;;;;;;23.52;8.65;;;7.20;99.90;;;;;;5050172;28;20139;-72
2023/01/30 02:37:36;;;;;;;;;;;7.20;99.90;;;;;;5050390;28;20044;-72
2023/01/30 02:40:27;;;;;;;26.77;8.98;;;7.10;99.90;;;;;;5051383;28;19924;-72
2023/01/30 02:43:12;;;;;;;23.45;9.20;;;7.20;99.90;;;;;;5051332;28;20033;-72
2023/01/30 02:45:37;;;;;;;27.08;10.60;;;7.20;99.90;;;;;;5050170;28;20037;-72
2023/01/30 02:48:06;;;;;;;29.73;9.70;;;7.20;99.90;;;;;;5049451;28;20174;-71
2023/01/30 02:51:02;;;;;;;30.33;8.60;;;7.30;99.90;;;;;;5050245;28;20563;-72
2023/01/30 02:53:35;;;;;;;25.88;8.35;;;7.30;99.90;;;;;;5050198;28;20084;-72
2023/01/30 02:56:00;;;;;;;28.90;8.40;;;7.30;99.90;;;;;;5050093;28;20547;-71
2023/01/30 02:58:30;;;;;;;26.10;8.27;;;7.40;99.90;;;;;;5032956;28;20041;-72
2023/01/30 03:01:15;;;;;;;25.42;7.82;;;7.40;99.90;;;;;;5051352;28;20432;-72
2023/01/30 03:04:31;;;;;;;21.92;9.05;;;7.30;99.90;;;;;;5051217;28;20445;-72
2023/01/30 03:07:16;;;;;;;23.55;8.88;;;7.40;99.90;;;;;;4976428;28;20097;-72
2023/01/30 03:09:58;;;;;;;20.75;7.00;;;7.40;99.90;;;;;;5047926;28;20107;-72
2023/01/30 03:12:34;;;;;;;19.65;7.03;;;7.40;99.90;;;;;;5033148;28;20110;-72
2023/01/30 03:15:10;;;;;;;22.40;6.97;;;7.30;99.90;;;;;;5050982;28;20040;-72
2023/01/30 03:17:40;;;;;;;39.20;8.45;;;7.40;99.90;;;;;;5049144;28;20049;-72
2023/01/30 03:20:06;;;;;;;21.98;6.70;;;7.40;99.90;;;;;;5050858;28;20506;-72
2023/01/30 03:22:32;;;;;;;26.50;6.43;;;7.40;99.90;;;;;;5049784;28;20078;-72
2023/01/30 03:24:57;;;;;;;17.45;5.82;;;7.50;99.90;;;;;;5051066;28;20060;-72
2023/01/30 03:27:23;;;;;;;24.50;6.38;;;7.50;99.90;;;;;;5050480;28;20068;-72
2023/01/30 03:29:49;;;;;;;27.80;6.10;;;7.40;99.90;;;;;;5050564;28;20071;-72
2023/01/30 03:32:14;;;;;;;28.50;6.80;;;7.50;99.90;;;;;;5054612;28;20033;-72
2023/01/30 03:34:40;;;;;;;21.45;5.47;;;7.30;99.90;;;;;;5053566;28;20106;-72
2023/01/30 03:37:06;;;;;;;23.67;4.78;;;7.30;99.90;;;;;;5052799;28;20040;-72
2023/01/30 03:39:31;;;;;;;19.65;6.55;;;7.30;99.90;;;;;;5054387;28;20402;-72
2023/01/30 03:41:57;;;;;;;21.75;5.60;;;7.40;99.90;;;;;;5053045;28;20072;-72
2023/01/30 03:44:22;;;;;;;22.98;5.40;;;7.40;99.90;;;;;;5054448;28;20044;-72
2023/01/30 03:46:48;;;;;;;24.15;6.50;;;7.20;99.90;;;;;;5054067;28;20037;-72
2023/01/30 03:49:13;;;;;;;21.20;4.97;;;7.10;99.90;;;;;;5054091;28;20032;-72
2023/01/30 03:51:39;;;;;;;31.42;6.80;;;7.10;99.90;;;;;;5054159;28;20039;-72
2023/01/30 03:54:04;;;;;;;20.70;5.72;;;7.10;99.90;;;;;;5054122;28;20099;-71
2023/01/30 03:56:30;;;;;;;20.77;5.20;;;7.00;99.90;;;;;;5052756;28;20406;-72
2023/01/30 03:58:56;;;;;;;18.42;4.97;;;7.10;99.90;;;;;;5052478;28;20498;-72
2023/01/30 04:01:21;;;;;;;22.58;5.45;;;7.00;99.90;;;;;;5052516;28;20072;-72
2023/01/30 04:03:47;;;;;;;21.23;4.35;;;6.90;99.90;;;;;;5053935;28;20033;-71
2023/01/30 04:06:13;;;;;;;22.25;5.07;;;7.00;99.90;;;;;;5053977;28;20041;-72
2023/01/30 04:08:38;;;;;;;24.35;6.63;;;6.90;99.90;;;;;;5052287;28;20110;-72
2023/01/30 04:11:04;;;;;;;16.08;5.47;;;6.90;99.90;;;;;;5053844;28;20129;-71
2023/01/30 04:13:29;;;;;;;24.20;4.68;;;6.90;99.90;;;;;;5049155;28;20037;-71
2023/01/30 04:16:15;;;;;;;14.40;4.30;;;6.80;99.90;;;;;;5051811;28;20079;-71
2023/01/30 04:18:40;;;;;;;25.58;6.53;;;6.70;99.90;;;;;;5083548;22;20045;-76
2023/01/30 04:21:06;;;;;;;23.38;7.00;;;6.70;99.90;;;;;;5071724;28;20502;-75
2023/01/30 04:23:32;;;;;;;25.38;5.70;;;6.70;99.90;;;;;;5072119;28;20553;-76
2023/01/30 04:25:57;;;;;;;21.77;6.18;;;6.80;99.90;;;;;;5072184;28;20524;-75
2023/01/30 04:28:23;;;;;;;19.00;4.88;;;6.80;99.90;;;;;;5073550;28;20086;-76
2023/01/30 04:30:48;;;;;;;16.10;4.38;;;6.70;99.90;;;;;;5073774;28;20052;-76
2023/01/30 04:33:14;;;;;;;24.30;5.43;;;6.70;99.90;;;;;;5072329;28;20047;-76
2023/01/30 04:35:39;;;;;;;20.42;5.15;;;6.60;99.90;;;;;;5072235;28;20040;-76
2023/01/30 04:38:05;;;;;;;32.05;5.30;;;6.70;99.90;;;;;;5073006;28;20040;-76
2023/01/30 04:40:31;;;;;;;22.88;5.20;;;6.70;99.90;;;;;;5071987;28;20048;-76
2023/01/30 04:42:56;;;;;;;26.42;5.65;;;6.60;99.90;;;;;;5071734;28;20063;-75
2023/01/30 04:45:22;;;;;;;24.50;7.13;;;6.40;99.90;;;;;;5073444;28;20509;-75
2023/01/30 04:47:47;;;;;;;27.48;5.07;;;6.50;99.90;;;;;;5071941;28;20595;-75
2023/01/30 04:50:13;;;;;;;24.35;5.45;;;6.40;99.90;;;;;;5073361;28;20111;-75
2023/01/30 04:52:38;;;;;;;23.60;4.63;;;6.40;99.90;;;;;;5072142;28;20040;-75
2023/01/30 04:55:04;;;;;;;25.23;4.88;;;6.50;99.90;;;;;;5073140;28;20040;-75
2023/01/30 04:57:30;;;;;;;18.58;4.95;;;6.40;99.90;;;;;;5055483;28;20035;-75
2023/01/30 04:59:55;;;;;;;25.48;5.97;;;6.40;99.90;;;;;;5052986;28;20041;-75
2023/01/30 05:02:21;;;;;;;31.25;6.22;;;6.50;99.90;;;;;;5051799;28;20115;-75
2023/01/30 05:04:49;;;;;;;18.63;4.20;;;6.50;99.90;;;;;;5053055;28;20040;-75
2023/01/30 05:07:14;;;;;;;21.35;4.95;;;6.50;99.90;;;;;;5051365;28;20041;-75
2023/01/30 05:09:40;;;;;;;25.00;4.75;;;6.60;99.90;;;;;;5052718;28;20079;-75
2023/01/30 05:12:05;;;;;;;19.23;5.30;;;6.60;99.90;;;;;;5051579;28;20090;-75
2023/01/30 05:14:31;;;;;;;20.55;5.25;;;6.50;99.90;;;;;;5051495;28;20093;-75
2023/01/30 05:16:56;;;;;;;21.20;4.50;;;6.40;99.90;;;;;;5051429;28;20045;-75
2023/01/30 05:19:22;;;;;;;19.90;4.45;;;6.50;99.90;;;;;;5051236;28;20052;-75
2023/01/30 05:21:47;;;;;;;23.25;4.97;;;6.50;99.90;;;;;;5051289;28;20052;-75
2023/01/30 05:24:13;;;;;;;25.90;4.30;;;6.50;99.90;;;;;;5051255;28;20036;-75
2023/01/30 05:26:38;;;;;;;22.48;4.35;;;6.40;99.90;;;;;;5051363;28;20072;-76
2023/01/30 05:29:04;;;;;;;19.83;4.07;;;6.40;99.90;;;;;;5052124;28;20029;-75
2023/01/30 05:31:30;;;;;;;26.38;4.57;;;6.30;99.90;;;;;;5052393;28;20048;-75
2023/01/30 05:33:55;;;;;;;29.80;6.32;;;6.30;99.90;;;;;;5051114;28;20138;-75
2023/01/30 05:36:22;;;;;;;28.20;3.90;;;6.30;99.90;;;;;;5051176;28;20055;-75
2023/01/30 05:38:47;;;;;;;16.05;3.88;;;6.20;99.90;;;;;;5050633;28;20053;-75
2023/01/30 05:41:15;;;;;;;16.60;4.70;;;6.30;99.90;;;;;;5052461;28;20048;-75
2023/01/30 05:43:41;;;;;;;29.80;7.18;;;6.20;99.90;;;;;;5050770;28;20410;-75
2023/01/30 05:46:08;;;;;;;23.40;5.40;;;6.30;99.90;;;;;;5051074;28;20029;-75
2023/01/30 05:48:34;;;;;;;25.35;5.03;;;6.20;99.90;;;;;;5050683;28;20041;-75
2023/01/30 05:51:00;;;;;;;22.25;5.03;;;6.20;99.90;;;;;;5051950;28;20062;-75
2023/01/30 05:53:29;;;;;;;26.05;4.47;;;6.20;99.90;;;;;;5049958;28;20047;-75
2023/01/30 05:56:03;;;;;;;26.02;6.45;;;6.20;99.90;;;;;;5052196;28;20123;-75
2023/01/30 05:58:30;;;;;;;23.42;3.80;;;6.10;99.90;;;;;;5050378;28;20041;-75
2023/01/30 06:01:04;;;;;;;22.60;4.10;;;6.20;99.90;;;;;;5050527;28;20162;-75
2023/01/30 06:03:29;;;;;;;21.77;5.82;;;6.10;99.90;;;;;;5051907;28;20044;-75
2023/01/30 06:05:55;;;;;;;24.05;6.25;;;6.10;99.90;;;;;;5051704;28;20033;-75
2023/01/30 06:08:20;;;;;;;23.65;4.53;;;6.20;99.90;;;;;;5051631;28;20029;-75
2023/01/30 06:10:46;;;;;;;23.70;4.95;;;6.10;99.90;;;;;;5033912;28;20094;-74
2023/01/30 06:13:11;;;;;;;21.52;4.30;;;6.20;99.90;;;;;;5050336;28;20506;-75
2023/01/30 06:15:37;;;;;;;20.73;5.07;;;6.10;99.90;;;;;;5050429;28;20045;-75
2023/01/30 06:18:03;;;;;;;28.80;5.97;;;6.20;99.90;;;;;;5051124;28;20045;-74
2023/01/30 06:20:29;;;;;;;29.00;5.22;;;6.10;99.90;;;;;;5050179;28;20041;-74
2023/01/30 06:22:54;;;;;;;20.90;4.30;;;6.10;99.90;;;;;;5050358;28;20355;-74
2023/01/30 06:25:20;;;;;;;26.88;4.80;;;6.30;99.90;;;;;;5050284;28;20044;-75
2023/01/30 06:27:45;;;;;;;35.08;5.43;;;6.30;99.90;;;;;;5049871;28;20441;-75
2023/01/30 06:30:11;;;;;;;27.77;7.38;;;6.30;99.90;;;;;;5051589;28;20596;-75
2023/01/30 06:32:37;;;;;;;22.73;5.40;;;6.30;99.90;;;;;;5050420;28;20041;-75
2023/01/30 06:35:03;;;;;;;20.80;4.85;;;6.30;99.90;;;;;;5059036;28;20082;-75
2023/01/30 06:37:29;;;;;;;18.38;4.70;;;6.30;99.90;;;;;;5071223;28;20098;-75
2023/01/30 06:39:55;;;;;;;24.52;5.68;;;6.40;99.90;;;;;;5070047;28;20575;-75
2023/01/30 06:42:20;;;;;;;26.45;5.45;;;6.40;99.90;;;;;;5070216;28;20178;-75
2023/01/30 06:44:46;;;;;;;17.67;4.20;;;6.40;99.90;;;;;;5061390;28;20124;-75
2023/01/30 06:47:11;;;;;;;25.17;5.55;;;6.30;99.90;;;;;;5059510;28;20120;-75
2023/01/30 06:49:37;;;;;;;29.23;5.85;;;6.40;99.90;;;;;;5070017;28;20048;-75
2023/01/30 06:52:02;;;;;;;22.35;4.55;;;6.30;99.90;;;;;;5071452;28;20036;-73
2023/01/30 06:54:28;;;;;;;29.95;6.07;;;6.40;99.90;;;;;;5071168;28;20045;-73
2023/01/30 06:56:53;;;;;;;30.23;5.55;;;6.50;99.90;;;;;;5069709;28;20047;-75
2023/01/30 06:59:19;;;;;;;33.38;6.07;;;6.40;99.90;;;;;;5071426;28;20032;-73
2023/01/30 07:01:44;;;;;;;24.08;5.25;;;6.50;99.90;;;;;;5071324;28;20040;-73
2023/01/30 07:04:10;;;;;;;19.83;3.88;;;6.50;99.90;;;;;;5069956;28;20135;-73
2023/01/30 07:06:35;;;;;;;29.77;5.28;;;6.40;99.90;;;;;;5075295;28;20040;-75
2023/01/30 07:09:01;;;;;;;24.80;5.55;;;6.50;99.90;;;;;;5075058;28;20078;-74
2023/01/30 07:11:27;;;;;;;34.50;9.48;;;6.40;99.90;;;;;;5075155;28;20032;-73
2023/01/30 07:13:52;;;;;;;25.20;5.90;;;6.50;99.90;;;;;;5075051;28;20520;-73
2023/01/30 07:16:18;;;;;;;24.80;5.45;;;6.50;99.90;;;;;;5073712;28;20557;-73
2023/01/30 07:18:43;;;;;;;22.27;4.97;;;6.50;99.90;;;;;;5074419;28;20043;-73
2023/01/30 07:21:09;;;;;;;29.60;4.60;;;6.50;99.90;;;;;;5074796;28;20531;-73
2023/01/30 07:23:35;;;;;;;21.45;4.60;;;6.60;99.90;;;;;;5075005;28;20079;-73
2023/01/30 07:26:05;;;;;;;20.85;5.35;;;6.50;99.90;;;;;;5073499;28;20041;-74
2023/01/30 07:28:30;;;;;;;24.95;4.50;;;6.50;99.90;;;;;;5073141;28;20409;-73
2023/01/30 07:31:00;;;;;;;25.60;5.13;;;6.70;99.90;;;;;;5073438;28;20119;-73
2023/01/30 07:33:26;;;;;;;18.88;5.38;;;6.60;99.90;;;;;;5073307;28;20394;-73
2023/01/30 07:35:51;;;;;;;24.65;4.78;;;6.60;99.90;;;;;;5073542;28;20037;-75
2023/01/30 07:38:17;;;;;;;27.83;6.45;;;6.60;99.90;;;;;;5074238;28;20062;-73
2023/01/30 07:40:42;;;;;;;22.27;5.20;;;6.60;99.90;;;;;;5074535;28;20044;-73
2023/01/30 07:43:11;;;;;;;29.85;5.38;;;6.60;99.90;;;;;;5074544;28;20047;-73
2023/01/30 07:45:45;;;;;;;27.70;4.90;;;6.60;99.90;;;;;;5074580;28;20397;-75
2023/01/30 07:48:12;;;;;;;35.15;5.80;;;6.60;99.90;;;;;;5074030;28;20545;-73
2023/01/30 07:50:39;;;;;;;25.30;5.40;;;6.60;99.90;;;;;;5073200;28;20083;-75
2023/01/30 07:53:06;;;;;;;30.92;5.95;;;6.70;99.90;;;;;;5073449;28;20076;-75
2023/01/30 07:55:32;;;;;;;27.10;7.38;;;6.70;99.90;;;;;;5073044;28;20040;-75
2023/01/30 07:57:58;;;;;;;26.42;4.95;;;6.70;99.90;;;;;;5073928;28;20447;-73
2023/01/30 08:00:24;;;;;;;23.35;6.32;;;6.60;99.90;;;;;;5074110;28;20115;-74
2023/01/30 08:02:49;;;;;;;32.78;5.32;;;6.80;99.90;;;;;;5073193;28;20131;-73
2023/01/30 08:05:15;;;;;;;25.52;5.43;;;6.70;99.90;;;;;;5072820;28;20508;-73
2023/01/30 08:07:41;;;;;;;21.00;4.60;;;6.80;99.90;;;;;;5072487;28;20033;-74
2023/01/30 08:10:07;;;;;;;25.73;5.20;;;6.80;99.90;;;;;;5056244;28;20453;-73
2023/01/30 08:12:33;;;;;;;28.92;5.13;;;6.70;99.90;;;;;;5072723;28;20041;-74
2023/01/30 08:14:58;;;;;;;28.50;5.88;;;6.80;99.90;;;;;;5072732;28;20064;-75
2023/01/30 08:17:24;;;;;;;26.00;5.10;;;6.80;99.90;;;;;;5071554;28;20079;-75
2023/01/30 08:19:49;;;;;;;27.33;5.22;;;6.80;99.90;;;;;;5072406;28;20040;-75
2023/01/30 08:22:15;;;;;;;25.90;5.00;;;6.90;99.90;;;;;;5072611;28;20036;-75
2023/01/30 08:24:41;;;;;;;26.77;6.80;;;6.90;99.90;;;;;;5072497;28;20120;-75
2023/01/30 08:27:06;;;;;;;27.13;5.05;;;6.90;99.90;;;;;;5073571;28;20039;-75
2023/01/30 08:29:32;;;;;;;21.25;4.97;;;6.90;99.90;;;;;;5073700;28;20037;-75
2023/01/30 08:31:58;;;;;;;24.23;5.60;;;7.00;99.90;;;;;;5072461;28;20044;-75
2023/01/30 08:34:24;;;;;;;17.90;4.93;;;6.90;99.90;;;;;;5073908;28;20051;-75
2023/01/30 08:36:50;;;;;;;27.58;5.20;;;7.00;99.90;;;;;;5072114;28;20494;-75
2023/01/30 08:39:15;;;;;;;31.20;5.55;;;6.90;99.90;;;;;;5073437;28;20032;-75
2023/01/30 08:41:42;;;;;;;26.70;5.38;;;7.00;99.90;;;;;;5072172;28;20138;-75
2023/01/30 08:44:08;;;;;;;25.27;4.95;;;7.00;99.90;;;;;;5073793;28;20072;-75
2023/01/30 08:46:34;;;;;;;27.90;5.90;;;7.00;99.90;;;;;;5073311;28;20032;-75
2023/01/30 08:49:00;;;;;;;29.30;5.72;;;7.00;99.90;;;;;;5071837;28;20035;-75
2023/01/30 08:51:25;;;;;;;29.23;5.20;;;7.00;99.90;;;;;;5055694;28;20046;-75
2023/01/30 08:53:51;;;;;;;26.58;5.13;;;7.00;99.90;;;;;;5072245;28;20036;-75
2023/01/30 08:56:16;;;;;;;20.95;5.22;;;7.00;99.90;;;;;;5072183;28;20524;-75
2023/01/30 08:58:44;;;;;;;24.27;5.45;;;7.00;99.90;;;;;;5072808;28;20509;-75
2023/01/30 09:01:10;;;;;;;18.98;4.40;;;7.00;99.90;;;;;;5072993;28;20482;-75
2023/01/30 09:03:35;;;;;;;20.38;4.85;;;7.00;99.90;;;;;;5073250;28;20036;-75
2023/01/30 09:06:01;;;;;;;18.10;5.65;;;7.20;99.90;;;;;;5055363;28;20033;-75
2023/01/30 09:08:26;;;;;;;22.45;4.78;;;7.20;99.90;;;;;;5072366;28;20116;-75
2023/01/30 09:10:56;;;;;;;24.17;5.00;;;7.30;99.90;;;;;;5071930;28;20062;-75
2023/01/30 09:13:21;;;;;;;30.45;6.25;;;7.20;99.90;;;;;;5072840;28;20063;-75
2023/01/30 09:15:47;;;;;;;29.80;5.57;;;7.30;99.90;;;;;;5071503;28;20040;-75
2023/01/30 09:18:12;;;;;;;20.48;4.65;;;7.30;99.90;;;;;;5072458;28;20036;-75
2023/01/30 09:20:38;;;;;;;30.02;6.00;;;7.30;99.90;;;;;;5072756;28;20044;-75
2023/01/30 09:23:03;;;;;;;29.70;7.05;;;7.30;99.90;;;;;;5072827;28;20040;-75
2023/01/30 09:25:29;;;;;;;26.10;5.90;;;7.20;99.90;;;;;;5072619;28;20032;-75
2023/01/30 09:27:54;;;;;;;27.65;5.18;;;7.30;99.90;;;;;;5071979;28;20040;-75
2023/01/30 09:30:20;;;;;;;25.70;6.47;;;7.20;99.90;;;;;;5072572;28;20042;-75
2023/01/30 09:32:47;;;;;;;25.60;5.47;;;7.20;99.90;;;;;;5072526;28;20032;-75
2023/01/30 09:35:12;;;;;;;30.27;5.68;;;7.20;99.90;;;;;;5072599;28;20048;-75
2023/01/30 09:37:45;;;;;;;22.17;5.05;;;7.20;99.90;;;;;;5071941;28;20040;-75
2023/01/30 09:40:17;;;;;;;22.37;5.70;;;7.20;99.90;;;;;;5071113;28;20080;-75
2023/01/30 09:43:06;;;;;;;27.90;5.40;;;7.10;99.90;;;;;;5072340;28;20090;-75
2023/01/30 09:45:38;;;;;;;37.05;5.43;;;7.10;99.90;;;;;;5071044;28;20123;-75
2023/01/30 09:48:21;;;;;;;28.35;6.18;;;7.10;99.90;;;;;;5070695;28;20032;-75
2023/01/30 09:50:54;;;;;;;26.80;5.68;;;7.00;99.90;;;;;;5071194;28;20067;-75
2023/01/30 09:53:49;;;;;;;27.95;4.90;;;6.70;99.90;;;;;;5070373;28;20044;-75
2023/01/30 09:56:14;;;;;;;26.10;5.22;;;6.50;99.90;;;;;;5050899;28;20568;-75
2023/01/30 09:58:58;;;;;;;29.15;5.63;;;6.60;99.90;;;;;;5050517;28;20045;-75
2023/01/30 10:01:39;;;;;;;27.25;6.03;;;6.70;99.90;;;;;;5050665;28;20037;-75
2023/01/30 10:04:10;;;;;;;30.50;6.68;;;6.90;99.90;;;;;;5052265;28;20473;-74
2023/01/30 10:06:47;;;;;;;24.17;5.68;;;7.00;99.90;;;;;;5050964;28;20062;-74
2023/01/30 10:09:53;;;;;;;25.00;5.88;;;7.10;99.90;;;;;;5064250;28;20401;-75
2023/01/30 10:12:55;;;;;;;24.77;7.68;;;7.30;99.90;;;;;;5053590;28;20576;-74
2023/01/30 10:15:58;;;;;;;23.42;5.32;;;7.30;99.90;;;;;;5042411;28;20064;-74
2023/01/30 10:18:33;;;;;;;21.65;5.15;;;7.30;99.90;;;;;;5071429;22;20087;-72
2023/01/30 10:21:19;;;;;;;24.67;5.65;;;7.40;99.90;;;;;;5049901;28;20463;-72
2023/01/30 10:24:06;;;;;;;25.40;6.57;;;7.40;99.90;;;;;;5050186;28;20037;-72
2023/01/30 10:26:32;;;;;;;29.77;6.30;;;7.50;99.90;;;;;;5049679;28;20044;-72
2023/01/30 10:29:13;;;;;;;23.23;5.25;;;7.60;99.90;;;;;;5049352;28;20037;-72
2023/01/30 10:31:51;;;;;;;23.55;5.72;;;7.70;99.90;;;;;;5049904;28;20127;-72
2023/01/30 10:34:26;;;;;;;31.35;6.40;;;7.60;99.90;;;;;;5049826;28;20049;-71
2023/01/30 10:37:07;;;;;;;25.40;4.75;;;7.30;99.90;;;;;;5050726;28;20410;-72
2023/01/30 10:39:40;;;;;;;9.05;2.20;;;7.10;99.90;;;;;;5050283;28;20047;-72
2023/01/30 10:42:18;;;;;;;10.98;2.15;;;6.90;99.90;;;;;;5055747;28;20044;-71
2023/01/30 10:44:44;;;;;;;13.80;4.40;;;6.80;99.90;;;;;;5055348;28;20041;-72
2023/01/30 10:47:39;;;;;;;7.25;1.52;;;6.70;99.90;;;;;;5053694;28;20063;-72
2023/01/30 10:50:21;;;;;;;5.20;1.15;;;6.50;99.90;;;;;;5055338;28;20110;-69
2023/01/30 10:52:58;;;;;;;6.95;2.53;;;6.40;99.90;;;;;;5055077;28;20090;-70
2023/01/30 10:55:47;;;;;;;2.22;0.80;;;6.40;99.90;;;;;;5053919;28;20067;-70
2023/01/30 10:58:37;;;;;;;6.10;1.02;;;6.30;99.90;;;;;;5053613;28;20073;-70
2023/01/30 11:01:10;;;;;;;4.55;1.10;;;6.30;99.90;;;;;;5054905;28;20047;-70
2023/01/30 11:03:46;;;;;;;6.53;1.50;;;6.40;99.90;;;;;;5054834;28;20043;-71
2023/01/30 11:06:23;;;;;;;14.07;2.28;;;6.50;99.90;;;;;;5053439;28;20041;-71
2023/01/30 11:08:51;;;;;;;9.55;2.30;;;6.60;99.90;;;;;;5053098;28;20037;-71
2023/01/30 11:11:30;;;;;;;10.27;2.83;;;6.70;99.90;;;;;;5053305;28;20045;-71
2023/01/30 11:14:06;;;;;;;9.23;1.90;;;6.80;99.90;;;;;;5053259;28;20120;-71
2023/01/30 11:16:39;;;;;;;17.10;4.35;;;6.80;99.90;;;;;;5054750;28;20037;-70
2023/01/30 11:19:05;;;;;;;13.45;3.00;;;6.90;99.90;;;;;;5054091;28;20558;-70
2023/01/30 11:21:31;;;;;;;17.38;3.67;;;7.00;99.90;;;;;;5054454;28;20040;-70
2023/01/30 11:24:10;;;;;;;9.00;3.08;;;7.00;99.90;;;;;;5054515;28;20028;-70
2023/01/30 11:26:36;;;;;;;14.43;3.30;;;7.00;99.90;;;;;;5054310;28;20057;-70
2023/01/30 11:29:31;;;;;;;19.17;4.95;;;7.10;99.90;;;;;;5054236;28;20028;-71
2023/01/30 11:32:02;;;;;;;15.23;3.10;;;7.20;99.90;;;;;;5054315;28;20041;-71
2023/01/30 11:34:28;;;;;;;16.80;3.10;;;7.30;99.90;;;;;;5053096;28;20037;-70
2023/01/30 11:37:21;;;;;;;15.23;4.88;;;7.40;99.90;;;;;;5052768;28;20734;-70
2023/01/30 11:39:50;;;;;;;12.13;2.90;;;7.50;99.90;;;;;;5052923;28;20045;-70
2023/01/30 11:42:19;;;;;;;17.88;3.05;;;7.60;99.90;;;;;;5054262;28;20082;-70
2023/01/30 11:44:44;;;;;;;18.38;5.55;;;7.70;99.90;;;;;;5052779;28;20101;-71
2023/01/30 11:47:26;;;;;;;16.45;3.50;;;7.70;99.90;;;;;;5053758;28;20041;-71
2023/01/30 11:49:55;;;;;;;16.50;4.30;;;7.60;99.90;;;;;;5053814;28;20086;-70
2023/01/30 11:52:32;;;;;;;22.42;3.70;;;7.60;99.90;;;;;;5053927;28;20049;-70
2023/01/30 11:55:04;;;;;;;14.45;3.03;;;7.60;99.90;;;;;;5054055;28;20083;-71
2023/01/30 11:57:42;;;;;;;15.95;4.30;;;7.70;99.90;;;;;;5052287;28;20490;-70
2023/01/30 12:00:17;;;;;;;11.38;3.10;;;7.80;99.90;;;;;;5053611;28;20041;-71
2023/01/30 12:02:44;;;;;;;18.75;3.20;;;7.70;99.90;;;;;;5052492;28;20044;-71
2023/01/30 12:05:33;;;;;;;23.60;4.70;;;7.70;99.90;;;;;;5053740;28;20037;-70
2023/01/30 12:08:20;;;;;;;17.52;3.67;;;7.70;99.90;;;;;;5053426;28;20036;-70
2023/01/30 12:10:56;;;;;;;13.18;4.00;;;7.60;99.90;;;;;;5052424;28;20053;-70
2023/01/30 12:13:29;;;;;;;17.27;3.00;;;7.60;99.90;;;;;;5053646;28;20059;-71
2023/01/30 12:16:18;;;;;;;23.38;4.43;;;7.60;99.90;;;;;;5053631;28;20112;-71
2023/01/30 12:19:10;;;;;;;19.50;5.22;;;7.60;99.90;;;;;;5052610;28;20048;-69
2023/01/30 12:21:48;;;;;;;18.50;3.88;;;7.80;99.90;;;;;;5050794;28;20053;-69
2023/01/30 12:24:26;;;;;;;24.90;4.32;;;7.80;99.90;;;;;;5052283;28;20045;-69
2023/01/30 12:27:00;;;;;;;22.90;5.75;;;7.90;99.90;;;;;;5051941;28;20045;-69
2023/01/30 12:30:00;;;;;;;19.75;4.38;;;7.90;99.90;;;;;;5052746;28;20036;-69
2023/01/30 12:32:29;;;;;;;29.50;5.78;;;8.00;99.90;;;;;;5026189;28;20403;-69
2023/01/30 12:34:55;;;;;;;22.23;4.40;;;7.90;99.90;;;;;;5052685;28;20044;-69
2023/01/30 12:38:00;;;;;;;20.92;3.95;;;8.00;99.90;;;;;;5051563;28;20037;-69
2023/01/30 12:40:48;;;;;;;13.45;3.92;;;7.90;99.90;;;;;;5051656;28;20087;-69
2023/01/30 12:43:32;;;;;;;23.23;5.05;;;7.90;99.90;;;;;;5040195;28;20034;-69
2023/01/30 12:46:04;;;;;;;17.92;4.20;;;7.90;99.90;;;;;;5043583;28;20116;-69
2023/01/30 12:49:04;;;;;;;16.55;5.18;;;7.90;99.90;;;;;;5050623;28;20047;-69
2023/01/30 12:51:53;;;;;;;29.00;5.15;;;7.80;99.90;;;;;;5053050;28;20068;-69
2023/01/30 12:54:46;;;;;;;22.13;4.43;;;7.90;99.90;;;;;;5052809;28;20498;-69
2023/01/30 12:57:37;;;;;;;24.17;5.75;;;7.90;99.90;;;;;;5051379;28;20044;-69
2023/01/30 13:00:36;;;;;;;27.88;5.03;;;7.90;99.90;;;;;;5025323;28;20049;-69
2023/01/30 13:03:37;;;;;;;21.35;4.95;;;8.00;99.90;;;;;;5050898;28;20127;-69
2023/01/30 13:06:18;;;;;;;20.02;4.60;;;8.00;99.90;;;;;;5039230;28;20059;-69
2023/01/30 13:09:09;;;;;;;23.20;5.82;;;8.10;99.90;;;;;;5052380;28;20084;-69
2023/01/30 13:12:22;;;;;;;23.55;4.32;;;8.10;99.90;;;;;;5051550;28;20128;-68
2023/01/30 13:15:22;;;;;;;25.67;5.50;;;8.10;99.90;;;;;;4975081;28;20046;-69